Time;durP1;ratioP1;P1;durP2;ratioP2;P2;SDS_P1;SDS_P2;PMS_P1;PMS_P2;Temp;Humidity;BMP_temperature;BMP_pressure;BME280_temperature;BME280_humidity;BME280_pressure;Samples;Min_cycle;Max_cycle;Signal;HPM_P1;HPM_P2
2023/05/14 00:00:05;;;;;;;11.98;10.77;;;;;;;;;;489141;28;1141;-74
2023/05/14 00:00:20;;;;;;;12.00;10.80;;;;;;;;;;491103;28;1999;-75
2023/05/14 00:00:36;;;;;;;12.70;11.13;;;;;;;;;;489620;28;1090;-74
2023/05/14 00:01:00;;;;;;;13.70;11.30;;;;;;;;;;494730;28;1284;-74
2023/05/14 00:01:16;;;;;;;13.27;11.88;;;;;;;;;;495225;28;1059;-74
2023/05/14 00:01:52;;;;;;;13.10;11.80;;;;;;;;;;501921;28;1110;-74
2023/05/14 00:03:18;;;;;;;12.30;11.20;;;;;;;;;;501588;27;1267;-75
2023/05/14 00:03:35;;;;;;;11.80;10.82;;;;;;;;;;504169;27;1125;-74
2023/05/14 00:04:21;;;;;;;12.98;11.73;;;;;;;;;;502820;27;1250;-75
2023/05/14 00:04:35;;;;;;;11.48;10.48;;;;;;;;;;504528;27;1204;-74
2023/05/14 00:04:51;;;;;;;11.30;10.30;;;;;;;;;;499767;28;1230;-75
2023/05/14 00:05:07;;;;;;;11.35;10.27;;;;;;;;;;496575;28;1362;-74
2023/05/14 00:05:32;;;;;;;12.18;11.05;;;;;;;;;;493991;28;1287;-74
2023/05/14 00:06:30;;;;;;;11.10;10.10;;;;;;;;;;494871;28;1159;-75
2023/05/14 00:06:39;;;;;;;11.95;10.73;;;;;;;;;;499558;28;924;-74
2023/05/14 00:07:00;;;;;;;10.98;9.90;;;;;;;;;;498921;28;1319;-74
2023/05/14 00:07:19;;;;;;;11.50;10.45;;;;;;;;;;493752;28;1225;-74
2023/05/14 00:07:40;;;;;;;10.75;9.85;;;;;;;;;;503200;28;1187;-75
2023/05/14 00:07:55;;;;;;;10.52;9.52;;;;;;;;;;510462;27;1247;-74
2023/05/14 00:08:10;;;;;;;11.37;10.30;;;;;;;;;;502987;28;978;-75
2023/05/14 00:08:25;;;;;;;12.00;10.80;;;;;;;;;;505519;28;1081;-74
2023/05/14 00:08:46;;;;;;;12.00;10.90;;;;;;;;;;512538;28;1101;-74
2023/05/14 00:09:27;;;;;;;10.73;9.73;;;;;;;;;;513973;28;1121;-74
2023/05/14 00:10:04;;;;;;;11.38;10.23;;;;;;;;;;496430;28;1224;-75
2023/05/14 00:10:23;;;;;;;11.23;10.18;;;;;;;;;;502350;28;1373;-74
2023/05/14 00:10:46;;;;;;;11.65;10.55;;;;;;;;;;490262;28;1184;-75
2023/05/14 00:11:14;;;;;;;;;;;;;;;;;;;;;
2023/05/14 00:12:58;;;;;;;14.02;12.82;;;;;;;;;;493671;28;1127;-74
2023/05/14 00:13:13;;;;;;;15.30;13.90;;;;;;;;;;479778;29;1500;-74
2023/05/14 00:13:44;;;;;;;13.77;12.57;;;;;;;;;;483517;29;1143;-74
2023/05/14 00:14:25;;;;;;;14.35;13.05;;;;;;;;;;486962;28;1202;-75
2023/05/14 00:15:58;;;;;;;14.45;13.23;;;;;;;;;;494302;28;1404;-75
2023/05/14 00:16:22;;;;;;;13.55;12.30;;;;;;;;;;498449;27;1281;-75
2023/05/14 00:16:37;;;;;;;13.60;12.40;;;;;;;;;;502895;27;1279;-75
2023/05/14 00:17:30;;;;;;;13.40;12.20;;;;;;;;;;512055;28;1238;-74
2023/05/14 00:18:06;;;;;;;14.55;13.15;;;;;;;;;;502575;28;954;-74
2023/05/14 00:18:46;;;;;;;;;;;;;;;;;;;;;
2023/05/14 00:19:17;;;;;;;13.55;12.30;;;;;;;;;;501620;27;909;-75
2023/05/14 00:20:23;;;;;;;13.38;12.07;;;;;;;;;;486138;28;1262;-73
2023/05/14 00:20:59;;;;;;;11.93;10.82;;;;;;;;;;498164;28;1511;-74
2023/05/14 00:22:06;;;;;;;11.70;10.60;;;;;;;;;;501567;28;1227;-74
2023/05/14 00:22:52;;;;;;;12.27;11.15;;;;;;;;;;493858;28;1597;-74
2023/05/14 00:23:32;;;;;;;12.48;11.23;;;;;;;;;;508876;27;1981;-74
2023/05/14 00:24:27;;;;;;;13.90;12.70;;;;;;;;;;497539;27;1030;-74
2023/05/14 00:24:48;;;;;;;11.68;10.73;;;;;;;;;;504250;27;1787;-74
2023/05/14 00:25:14;;;;;;;12.07;11.07;;;;;;;;;;506731;28;1405;-75
2023/05/14 00:25:36;;;;;;;12.60;11.40;;;;;;;;;;504270;28;1048;-74
2023/05/14 00:25:51;;;;;;;13.05;11.82;;;;;;;;;;510455;28;1970;-74
2023/05/14 00:27:09;;;;;;;13.97;12.60;;;;;;;;;;475858;28;1677;-74
2023/05/14 00:27:27;;;;;;;14.05;12.65;;;;;;;;;;486524;28;1299;-75
2023/05/14 00:28:37;;;;;;;12.63;11.57;;;;;;;;;;500118;28;1268;-75
2023/05/14 00:28:44;;;;;;;14.55;13.23;;;;;;;;;;489767;28;1329;-74
2023/05/14 00:29:11;;;;;;;13.20;12.00;;;;;;;;;;500121;28;1283;-74
2023/05/14 00:30:27;;;;;;;;;;;;;;;;;;;;;
2023/05/14 00:30:43;;;;;;;14.35;13.05;;;;;;;;;;512204;27;1146;-75
2023/05/14 00:31:07;;;;;;;14.53;13.13;;;;;;;;;;504203;27;1225;-74
2023/05/14 00:31:49;;;;;;;15.05;13.75;;;;;;;;;;498424;28;1102;-75
2023/05/14 00:32:25;;;;;;;14.98;13.68;;;;;;;;;;494995;28;1134;-74
2023/05/14 00:32:50;;;;;;;15.18;13.88;;;;;;;;;;510209;28;1264;-74
2023/05/14 00:33:31;;;;;;;14.90;13.50;;;;;;;;;;490798;28;1298;-74
2023/05/14 00:36:04;;;;;;;;;;;;;;;;;;;;;
2023/05/14 00:36:21;;;;;;;14.38;13.10;;;;;;;;;;478886;28;1812;-75
2023/05/14 00:36:40;;;;;;;13.70;12.60;;;;;;;;;;490720;28;1252;-75
2023/05/14 00:37:18;;;;;;;13.68;12.57;;;;;;;;;;500866;28;1227;-74
2023/05/14 00:37:37;;;;;;;13.63;12.52;;;;;;;;;;490847;28;1363;-74
2023/05/14 00:38:28;;;;;;;14.10;12.80;;;;;;;;;;498152;28;1031;-75
2023/05/14 00:39:03;;;;;;;14.13;12.88;;;;;;;;;;498464;28;1193;-74
2023/05/14 00:39:45;;;;;;;12.63;11.63;;;;;;;;;;489508;28;1297;-74
2023/05/14 00:40:20;;;;;;;12.10;11.00;;;;;;;;;;490677;28;992;-75
2023/05/14 00:41:00;;;;;;;;;;;;;;;;;;;;;
2023/05/14 00:41:18;;;;;;;12.30;11.18;;;;;;;;;;485633;28;1118;-75
2023/05/14 00:41:42;;;;;;;11.27;10.27;;;;;;;;;;501145;28;1063;-74
2023/05/14 00:42:40;;;;;;;10.20;9.40;;;;;;;;;;502631;28;1339;-75
2023/05/14 00:42:45;;;;;;;11.88;10.88;;;;;;;;;;496950;28;1118;-74
2023/05/14 00:43:21;;;;;;;13.27;11.98;;;;;;;;;;497551;28;1383;-73
2023/05/14 00:44:06;;;;;;;12.45;11.35;;;;;;;;;;494146;28;1392;-75
2023/05/14 00:44:21;;;;;;;13.38;11.98;;;;;;;;;;486531;28;1347;-74
2023/05/14 00:44:58;;;;;;;13.63;12.32;;;;;;;;;;487375;28;1500;-74
2023/05/14 00:45:39;;;;;;;13.10;11.90;;;;;;;;;;479828;28;1866;-74
2023/05/14 00:45:54;;;;;;;12.80;11.50;;;;;;;;;;496766;28;1255;-73
2023/05/14 00:46:19;;;;;;;12.90;11.60;;;;;;;;;;487332;28;1521;-74
2023/05/14 00:46:55;;;;;;;12.73;11.52;;;;;;;;;;492578;28;1399;-75
2023/05/14 00:47:20;;;;;;;11.90;10.70;;;;;;;;;;483751;28;2172;-75
2023/05/14 00:47:57;;;;;;;11.80;10.70;;;;;;;;;;496389;28;1413;-74
2023/05/14 00:48:47;;;;;;;10.95;10.02;;;;;;;;;;478119;29;1917;-73
2023/05/14 00:49:28;;;;;;;10.27;9.45;;;;;;;;;;484225;29;1257;-74
2023/05/14 00:50:10;;;;;;;9.63;8.73;;;;;;;;;;487379;29;1426;-74
2023/05/14 00:50:36;;;;;;;;;;;;;;;;;;;;;
2023/05/14 00:50:52;;;;;;;9.00;8.20;;;;;;;;;;493467;29;1046;-75
2023/05/14 00:51:27;;;;;;;9.30;8.43;;;;;;;;;;484230;29;941;-75
2023/05/14 00:51:52;;;;;;;9.35;8.45;;;;;;;;;;482556;29;1398;-74
2023/05/14 00:52:19;;;;;;;9.75;8.75;;;;;;;;;;486903;29;1159;-74
2023/05/14 00:52:38;;;;;;;9.00;8.10;;;;;;;;;;490395;29;1266;-75
2023/05/14 00:53:14;;;;;;;10.05;8.55;;;;;;;;;;485619;29;1298;-75
2023/05/14 00:53:39;;;;;;;9.13;8.23;;;;;;;;;;485023;29;1380;-72
2023/05/14 00:54:00;;;;;;;8.90;8.10;;;;;;;;;;494340;29;1196;-74
2023/05/14 00:54:26;;;;;;;8.90;8.10;;;;;;;;;;471723;29;1241;-74
2023/05/14 00:55:02;;;;;;;8.38;7.68;;;;;;;;;;474841;29;1359;-74
2023/05/14 00:55:33;;;;;;;8.55;7.75;;;;;;;;;;467964;29;2147;-73
2023/05/14 00:55:58;;;;;;;7.72;7.03;;;;;;;;;;476504;29;1122;-74
2023/05/14 00:56:41;;;;;;;7.72;7.05;;;;;;;;;;485232;28;1474;-74
2023/05/14 00:57:25;;;;;;;;;;;;;;;;;;;;;
2023/05/14 00:58:07;;;;;;;8.75;7.95;;;;;;;;;;489882;29;1506;-74
2023/05/14 00:58:37;;;;;;;9.88;8.07;;;;;;;;;;485698;29;1221;-74
2023/05/14 00:59:13;;;;;;;8.80;7.90;;;;;;;;;;490524;29;925;-74
2023/05/14 00:59:44;;;;;;;8.55;7.75;;;;;;;;;;477828;29;1658;-74
2023/05/14 01:00:08;;;;;;;8.48;7.68;;;;;;;;;;489702;29;1246;-75
2023/05/14 01:00:24;;;;;;;8.90;8.10;;;;;;;;;;491466;29;1950;-74
2023/05/14 01:01:00;;;;;;;8.90;8.10;;;;;;;;;;490397;29;1166;-74
2023/05/14 01:01:20;;;;;;;9.15;8.25;;;;;;;;;;478913;29;1108;-73
2023/05/14 01:01:58;;;;;;;9.13;8.32;;;;;;;;;;493062;29;1491;-74
2023/05/14 01:02:16;;;;;;;10.15;9.02;;;;;;;;;;480423;29;1424;-73
2023/05/14 01:02:37;;;;;;;12.30;9.80;;;;;;;;;;492103;29;1152;-74
2023/05/14 01:03:19;;;;;;;10.48;9.35;;;;;;;;;;485390;29;1931;-73
2023/05/14 01:03:43;;;;;;;11.07;9.75;;;;;;;;;;477402;29;1614;-73
2023/05/14 01:03:59;;;;;;;12.63;10.05;;;;;;;;;;490428;29;1144;-73
2023/05/14 01:04:36;;;;;;;13.43;10.30;;;;;;;;;;484143;29;1329;-74
2023/05/14 01:06:21;;;;;;;10.80;9.70;;;;;;;;;;478101;29;1117;-73
2023/05/14 01:06:55;;;;;;;9.57;8.70;;;;;;;;;;480528;29;1737;-74
2023/05/14 01:07:19;;;;;;;10.63;9.73;;;;;;;;;;482264;29;2009;-74
2023/05/14 01:07:40;;;;;;;10.60;9.60;;;;;;;;;;477293;29;1117;-73
2023/05/14 01:09:28;;;;;;;11.07;9.68;;;;;;;;;;485207;29;1089;-74
2023/05/14 01:09:57;;;;;;;10.57;9.50;;;;;;;;;;491317;29;1010;-73
2023/05/14 01:10:50;;;;;;;10.73;9.63;;;;;;;;;;479813;29;1127;-74
2023/05/14 01:12:15;;;;;;;9.52;8.73;;;;;;;;;;473836;29;1438;-73
2023/05/14 01:12:52;;;;;;;11.90;10.80;;;;;;;;;;475382;29;1302;-74
2023/05/14 01:13:30;;;;;;;15.13;10.45;;;;;;;;;;473239;29;1302;-74
2023/05/14 01:14:18;;;;;;;23.15;10.07;;;;;;;;;;492143;29;1187;-73
2023/05/14 01:15:16;;;;;;;;;;;;;;;;;;;;;
2023/05/14 01:15:36;;;;;;;35.83;10.75;;;;;;;;;;487337;29;1125;-73
2023/05/14 01:16:01;;;;;;;31.52;10.85;;;;;;;;;;478866;29;1269;-74
2023/05/14 01:16:20;;;;;;;32.10;10.27;;;;;;;;;;472329;29;947;-72
2023/05/14 01:16:43;;;;;;;30.92;10.10;;;;;;;;;;485214;29;1488;-73
2023/05/14 01:17:12;;;;;;;19.50;9.77;;;;;;;;;;487558;29;1321;-73
2023/05/14 01:19:13;;;;;;;60.17;11.32;;;;;;;;;;477628;29;1503;-73
2023/05/14 01:19:44;;;;;;;84.75;12.68;;;;;;;;;;470780;29;1459;-73
2023/05/14 01:20:29;;;;;;;36.20;11.45;;;;;;;;;;479401;29;1197;-73
2023/05/14 01:20:47;;;;;;;54.35;11.57;;;;;;;;;;489548;29;1405;-73
2023/05/14 01:22:05;;;;;;;39.55;11.82;;;;;;;;;;489876;29;1328;-73
2023/05/14 01:22:19;;;;;;;26.55;11.52;;;;;;;;;;484795;29;1174;-74
2023/05/14 01:22:41;;;;;;;57.97;13.10;;;;;;;;;;478258;29;1298;-73
2023/05/14 01:23:58;;;;;;;20.70;12.48;;;;;;;;;;499325;28;915;-73
2023/05/14 01:25:00;;;;;;;14.05;11.13;;;;;;;;;;488091;29;1470;-74
2023/05/14 01:25:18;;;;;;;16.92;11.70;;;;;;;;;;484263;29;1250;-74
2023/05/14 01:25:34;;;;;;;24.63;13.32;;;;;;;;;;475888;28;1562;-75
2023/05/14 01:26:06;;;;;;;18.17;13.38;;;;;;;;;;489886;28;1085;-74
2023/05/14 01:26:32;;;;;;;12.63;11.48;;;;;;;;;;489085;28;1677;-74
2023/05/14 01:26:47;;;;;;;12.20;11.20;;;;;;;;;;490779;28;1120;-74
2023/05/14 01:27:23;;;;;;;13.10;11.97;;;;;;;;;;479715;28;1170;-74
2023/05/14 01:28:44;;;;;;;14.57;13.20;;;;;;;;;;479369;29;1267;-74
2023/05/14 01:28:44;;;;;;;14.13;12.82;;;;;;;;;;472836;29;1523;-73
2023/05/14 01:30:21;;;;;;;16.92;13.23;;;;;;;;;;485661;29;1212;-73
2023/05/14 01:30:56;;;;;;;14.57;13.07;;;;;;;;;;482213;29;1120;-73
2023/05/14 01:31:38;;;;;;;13.65;12.35;;;;;;;;;;482201;28;1411;-73
2023/05/14 01:31:58;;;;;;;14.82;13.32;;;;;;;;;;480459;29;1608;-74
2023/05/14 01:32:25;;;;;;;;;;;;;;;;;;;;;
2023/05/14 01:32:45;;;;;;;15.60;13.95;;;;;;;;;;483737;29;1038;-73
2023/05/14 01:33:19;;;;;;;14.95;13.65;;;;;;;;;;487873;28;1154;-73
2023/05/14 01:33:45;;;;;;;14.20;12.80;;;;;;;;;;487930;28;1149;-73
2023/05/14 01:34:42;;;;;;;15.15;13.65;;;;;;;;;;488998;28;1439;-74
2023/05/14 01:35:37;;;;;;;15.38;13.88;;;;;;;;;;487953;28;1224;-74
2023/05/14 01:36:35;;;;;;;15.27;13.77;;;;;;;;;;487983;28;1473;-74
2023/05/14 01:36:41;;;;;;;15.07;13.57;;;;;;;;;;484879;28;1466;-75
2023/05/14 01:37:22;;;;;;;13.95;12.65;;;;;;;;;;484280;28;1727;-73
2023/05/14 01:37:51;;;;;;;;;;;;;;;;;;;;;
2023/05/14 01:38:29;;;;;;;11.50;10.45;;;;;;;;;;473413;29;918;-75
2023/05/14 01:38:58;;;;;;;;;;;;;;;;;;;;;
2023/05/14 01:39:14;;;;;;;11.15;10.10;;;;;;;;;;482008;29;1034;-75
2023/05/14 01:39:49;;;;;;;11.13;10.07;;;;;;;;;;485862;29;1221;-73
2023/05/14 01:40:25;;;;;;;11.57;10.38;;;;;;;;;;487180;28;1284;-74
2023/05/14 01:41:46;;;;;;;;;;;;;;;;;;;;;
2023/05/14 01:42:12;;;;;;;12.52;11.32;;;;;;;;;;492682;28;1747;-74
2023/05/14 01:42:38;;;;;;;13.13;11.82;;;;;;;;;;496840;28;1509;-73
2023/05/14 01:43:10;;;;;;;12.05;11.02;;;;;;;;;;497900;28;1791;-74
2023/05/14 01:43:44;;;;;;;;;;;;;;;;;;;;;
2023/05/14 01:44:00;;;;;;;13.05;11.95;;;;;;;;;;502384;28;1361;-74
2023/05/14 01:45:48;;;;;;;12.60;11.40;;;;;;;;;;479820;28;1324;-74
2023/05/14 01:46:04;;;;;;;13.35;12.13;;;;;;;;;;492077;28;1269;-73
2023/05/14 01:47:00;;;;;;;13.38;12.10;;;;;;;;;;501014;27;886;-74
2023/05/14 01:48:06;;;;;;;12.73;11.60;;;;;;;;;;494046;28;1193;-74
2023/05/14 01:48:22;;;;;;;12.68;11.57;;;;;;;;;;486159;28;1479;-74
2023/05/14 01:49:06;;;;;;;13.25;12.15;;;;;;;;;;497105;28;1157;-74
2023/05/14 01:49:24;;;;;;;14.13;12.82;;;;;;;;;;485375;28;949;-74
2023/05/14 01:51:09;;;;;;;;;;;;;;;;;;;;;
2023/05/14 01:51:26;;;;;;;13.88;12.68;;;;;;;;;;484287;28;1962;-74
2023/05/14 01:51:41;;;;;;;13.70;12.40;;;;;;;;;;491113;28;1444;-74
2023/05/14 01:52:29;;;;;;;;;;;;;;;;;;;;;
2023/05/14 01:53:38;;;;;;;;;;;;;;;;;;;;;
2023/05/14 01:54:30;;;;;;;;;;;;;;;;;;;;;
2023/05/14 01:55:21;;;;;;;;;;;;;;;;;;;;;
2023/05/14 01:55:46;;;;;;;21.48;13.93;;;;;;;;;;488488;28;1254;-73
2023/05/14 01:56:26;;;;;;;;;;;;;;;;;;;;;
2023/05/14 01:56:47;;;;;;;13.40;12.02;;;;;;;;;;502805;28;1109;-74
2023/05/14 01:57:29;;;;;;;14.55;13.02;;;;;;;;;;486841;28;1444;-74
2023/05/14 01:58:00;;;;;;;;;;;;;;;;;;;;;
2023/05/14 01:58:36;;;;;;;14.95;13.10;;;;;;;;;;487883;28;1166;-73
2023/05/14 01:59:43;;;;;;;15.90;14.38;;;;;;;;;;489381;28;1436;-74
2023/05/14 02:00:04;;;;;;;16.10;14.45;;;;;;;;;;494870;28;1271;-73
2023/05/14 02:00:24;;;;;;;14.57;13.27;;;;;;;;;;491569;28;1247;-74
2023/05/14 02:00:59;;;;;;;13.27;12.07;;;;;;;;;;495419;28;1972;-74
2023/05/14 02:01:15;;;;;;;12.50;11.50;;;;;;;;;;487901;28;960;-74
2023/05/14 02:01:50;;;;;;;13.07;11.80;;;;;;;;;;509829;28;1464;-73
2023/05/14 02:02:25;;;;;;;15.15;13.55;;;;;;;;;;493067;28;1033;-73
2023/05/14 02:02:47;;;;;;;14.32;12.93;;;;;;;;;;505797;28;1406;-73
2023/05/14 02:03:11;;;;;;;14.15;12.60;;;;;;;;;;508174;28;1187;-74
2023/05/14 02:03:33;;;;;;;13.32;12.05;;;;;;;;;;499513;28;1155;-73
2023/05/14 02:03:49;;;;;;;14.93;12.05;;;;;;;;;;504120;28;1077;-74
2023/05/14 02:04:13;;;;;;;24.70;13.33;;;;;;;;;;499209;28;1131;-75
2023/05/14 02:04:55;;;;;;;18.23;13.98;;;;;;;;;;492499;28;1198;-74
2023/05/14 02:05:14;;;;;;;17.13;13.10;;;;;;;;;;486866;28;1604;-74
2023/05/14 02:05:52;;;;;;;19.90;13.35;;;;;;;;;;484177;28;1912;-74
2023/05/14 02:06:31;;;;;;;31.13;14.25;;;;;;;;;;481698;29;1683;-74
2023/05/14 02:06:53;;;;;;;15.90;12.98;;;;;;;;;;489148;29;1007;-74
2023/05/14 02:08:08;;;;;;;15.00;12.85;;;;;;;;;;503241;28;1192;-74
2023/05/14 02:08:30;;;;;;;22.98;14.02;;;;;;;;;;489238;28;1154;-74
2023/05/14 02:09:16;;;;;;;;;;;;;;;;;;;;;
2023/05/14 02:09:37;;;;;;;;;;;;;;;;;;;;;
2023/05/14 02:10:06;;;;;;;18.08;13.73;;;;;;;;;;490003;28;1175;-74
2023/05/14 02:10:48;;;;;;;36.17;14.32;;;;;;;;;;493904;28;1166;-74
2023/05/14 02:11:29;;;;;;;15.68;14.18;;;;;;;;;;494466;28;1276;-74
2023/05/14 02:12:16;;;;;;;27.85;14.10;;;;;;;;;;498231;29;1301;-74
2023/05/14 02:13:48;;;;;;;;;;;;;;;;;;;;;
2023/05/14 02:14:22;;;;;;;36.38;15.35;;;;;;;;;;491775;29;997;-73
2023/05/14 02:14:38;;;;;;;39.15;14.82;;;;;;;;;;483412;29;1073;-73
2023/05/14 02:16:20;;;;;;;;;;;;;;;;;;;;;
2023/05/14 02:16:57;;;;;;;32.88;14.93;;;;;;;;;;490355;29;1404;-73
2023/05/14 02:17:27;;;;;;;17.40;13.68;;;;;;;;;;481541;29;1157;-73
2023/05/14 02:17:59;;;;;;;15.95;13.75;;;;;;;;;;498359;29;1319;-74
2023/05/14 02:18:24;;;;;;;36.85;16.00;;;;;;;;;;483118;28;1200;-74
2023/05/14 02:19:16;;;;;;;;;;;;;;;;;;;;;
2023/05/14 02:19:50;;;;;;;89.15;18.92;;;;;;;;;;489401;28;2089;-74
2023/05/14 02:20:15;;;;;;;92.88;19.30;;;;;;;;;;484176;29;1155;-74
2023/05/14 02:20:31;;;;;;;97.72;19.73;;;;;;;;;;483666;29;1979;-73
2023/05/14 02:20:47;;;;;;;25.48;18.10;;;;;;;;;;489582;29;959;-74
2023/05/14 02:21:19;;;;;;;32.33;18.25;;;;;;;;;;479412;29;1370;-74
2023/05/14 02:22:34;;;;;;;42.58;18.83;;;;;;;;;;478419;29;1559;-74
2023/05/14 02:22:50;;;;;;;19.45;16.20;;;;;;;;;;472313;29;1052;-74
2023/05/14 02:23:25;;;;;;;18.42;16.70;;;;;;;;;;482630;29;991;-74
2023/05/14 02:24:48;;;;;;;41.72;17.33;;;;;;;;;;483326;28;829;-74
2023/05/14 02:25:04;;;;;;;48.10;17.25;;;;;;;;;;478018;29;1312;-74
2023/05/14 02:26:11;;;;;;;62.47;18.55;;;;;;;;;;481050;29;1376;-74
2023/05/14 02:26:44;;;;;;;43.92;17.85;;;;;;;;;;484690;28;1317;-75
2023/05/14 02:27:26;;;;;;;83.25;20.13;;;;;;;;;;480450;28;1349;-75
2023/05/14 02:28:12;;;;;;;;;;;;;;;;;;;;;
2023/05/14 02:28:27;;;;;;;49.63;20.52;;;;;;;;;;476674;29;1243;-74
2023/05/14 02:28:48;;;;;;;38.13;19.80;;;;;;;;;;500388;28;1100;-73
2023/05/14 02:30:25;;;;;;;28.65;15.02;;;;;;;;;;482703;28;1256;-74
2023/05/14 02:30:56;;;;;;;31.63;15.48;;;;;;;;;;489059;28;1359;-74
2023/05/14 02:31:11;;;;;;;37.67;15.38;;;;;;;;;;481625;28;1076;-74
2023/05/14 02:31:58;;;;;;;36.57;15.07;;;;;;;;;;496014;28;1272;-73
2023/05/14 02:32:59;;;;;;;28.83;14.88;;;;;;;;;;486854;29;1160;-73
2023/05/14 02:33:26;;;;;;;39.15;15.63;;;;;;;;;;471137;29;1052;-74
2023/05/14 02:34:06;;;;;;;38.17;15.95;;;;;;;;;;473122;29;1155;-74
2023/05/14 02:34:46;;;;;;;21.52;14.82;;;;;;;;;;484080;29;1168;-73
2023/05/14 02:35:23;;;;;;;26.67;14.60;;;;;;;;;;485361;29;1230;-74
2023/05/14 02:35:38;;;;;;;14.55;13.15;;;;;;;;;;482127;29;1862;-74
2023/05/14 02:36:03;;;;;;;35.72;14.60;;;;;;;;;;478776;29;1294;-73
2023/05/14 02:36:18;;;;;;;33.97;14.85;;;;;;;;;;477064;29;1313;-74
2023/05/14 02:36:54;;;;;;;17.00;14.30;;;;;;;;;;489101;29;1182;-72
2023/05/14 02:38:23;;;;;;;22.63;14.70;;;;;;;;;;489120;29;1319;-74
2023/05/14 02:38:41;;;;;;;29.65;14.85;;;;;;;;;;476339;29;1323;-73
2023/05/14 02:39:12;;;;;;;49.65;16.17;;;;;;;;;;483118;29;1374;-73
2023/05/14 02:39:34;;;;;;;29.65;15.70;;;;;;;;;;487528;29;1435;-73
2023/05/14 02:39:55;;;;;;;28.88;14.95;;;;;;;;;;487855;29;1155;-74
2023/05/14 02:40:42;;;;;;;38.75;14.98;;;;;;;;;;481407;29;1251;-74
2023/05/14 02:41:11;;;;;;;24.08;15.20;;;;;;;;;;486496;29;1379;-72
2023/05/14 02:42:29;;;;;;;71.40;17.48;;;;;;;;;;475415;29;1658;-74
2023/05/14 02:42:48;;;;;;;41.08;16.98;;;;;;;;;;482235;29;2080;-73
2023/05/14 02:43:09;;;;;;;43.17;17.58;;;;;;;;;;486322;29;1735;-74
2023/05/14 02:43:24;;;;;;;36.47;17.77;;;;;;;;;;484842;29;1010;-74
2023/05/14 02:43:40;;;;;;;28.73;17.23;;;;;;;;;;484229;29;1358;-74
2023/05/14 02:44:40;;;;;;;24.75;17.75;;;;;;;;;;492547;29;1485;-74
2023/05/14 02:45:46;;;;;;;51.90;18.27;;;;;;;;;;486000;29;1271;-73
2023/05/14 02:46:24;;;;;;;49.30;18.75;;;;;;;;;;486303;29;1203;-74
2023/05/14 02:47:41;;;;;;;37.97;19.20;;;;;;;;;;490587;29;1618;-74
2023/05/14 02:48:21;;;;;;;;;;;;;;;;;;;;;
2023/05/14 02:48:40;;;;;;;16.92;14.57;;;;;;;;;;484462;29;1086;-74
2023/05/14 02:49:02;;;;;;;16.45;14.23;;;;;;;;;;485503;29;1230;-73
2023/05/14 02:49:39;;;;;;;18.35;14.70;;;;;;;;;;478247;29;1235;-74
2023/05/14 02:49:54;;;;;;;16.10;14.38;;;;;;;;;;490492;29;1200;-74
2023/05/14 02:50:18;;;;;;;16.95;14.25;;;;;;;;;;475536;29;1209;-74
2023/05/14 02:50:34;;;;;;;16.63;13.88;;;;;;;;;;489990;29;1293;-74
2023/05/14 02:50:55;;;;;;;20.05;14.60;;;;;;;;;;493022;29;1188;-74
2023/05/14 02:51:11;;;;;;;26.00;15.82;;;;;;;;;;480897;29;1175;-74
2023/05/14 02:51:30;;;;;;;25.17;16.27;;;;;;;;;;491398;29;1008;-73
2023/05/14 02:51:53;;;;;;;20.55;15.80;;;;;;;;;;481521;29;1186;-74
2023/05/14 02:52:19;;;;;;;18.35;14.40;;;;;;;;;;483430;29;1385;-74
2023/05/14 02:53:07;;;;;;;;;;;;;;;;;;;;;
2023/05/14 02:53:23;;;;;;;22.52;15.73;;;;;;;;;;493078;29;937;-73
2023/05/14 02:54:46;;;;;;;17.17;14.77;;;;;;;;;;478634;29;1562;-74
2023/05/14 02:55:30;;;;;;;16.45;14.82;;;;;;;;;;479068;29;1207;-74
2023/05/14 02:56:18;;;;;;;16.25;14.55;;;;;;;;;;464213;29;2042;-74
2023/05/14 02:56:36;;;;;;;16.15;14.60;;;;;;;;;;478456;29;1482;-74
2023/05/14 02:57:07;;;;;;;16.45;14.88;;;;;;;;;;476235;29;1410;-73
2023/05/14 02:57:23;;;;;;;25.50;15.20;;;;;;;;;;472523;29;1089;-73
2023/05/14 02:58:29;;;;;;;17.20;15.40;;;;;;;;;;472943;29;1272;-74
2023/05/14 02:59:05;;;;;;;18.13;16.40;;;;;;;;;;486463;29;1439;-73
2023/05/14 02:59:20;;;;;;;16.50;14.77;;;;;;;;;;472378;29;1646;-75
2023/05/14 02:59:42;;;;;;;17.30;15.50;;;;;;;;;;486869;29;1307;-73
2023/05/14 03:00:06;;;;;;;18.23;16.05;;;;;;;;;;475871;29;1220;-74
2023/05/14 03:00:48;;;;;;;18.13;16.08;;;;;;;;;;474249;29;1971;-74
2023/05/14 03:01:13;;;;;;;36.75;15.57;;;;;;;;;;476877;29;1160;-73
2023/05/14 03:02:34;;;;;;;;;;;;;;;;;;;;;
2023/05/14 03:02:56;;;;;;;51.38;16.75;;;;;;;;;;468068;29;1224;-74
2023/05/14 03:03:11;;;;;;;24.85;16.48;;;;;;;;;;480031;29;1425;-73
2023/05/14 03:03:28;;;;;;;22.70;16.33;;;;;;;;;;483606;29;1648;-73
2023/05/14 03:03:46;;;;;;;20.83;16.23;;;;;;;;;;494979;29;1401;-74
2023/05/14 03:04:28;;;;;;;22.55;15.45;;;;;;;;;;473576;29;1255;-74
2023/05/14 03:05:30;;;;;;;27.73;16.30;;;;;;;;;;486615;29;1151;-73
2023/05/14 03:06:01;;;;;;;21.73;15.93;;;;;;;;;;492147;29;1258;-75
2023/05/14 03:06:42;;;;;;;17.52;15.73;;;;;;;;;;482740;29;1230;-73
2023/05/14 03:06:58;;;;;;;18.90;16.23;;;;;;;;;;474793;29;980;-74
2023/05/14 03:07:31;;;;;;;19.73;16.40;;;;;;;;;;476834;28;949;-73
2023/05/14 03:07:57;;;;;;;42.17;16.58;;;;;;;;;;480575;29;1370;-74
2023/05/14 03:08:29;;;;;;;36.42;16.13;;;;;;;;;;477250;29;2081;-73
2023/05/14 03:09:05;;;;;;;26.77;14.57;;;;;;;;;;486297;28;1340;-73
2023/05/14 03:09:35;;;;;;;37.67;15.73;;;;;;;;;;479849;28;967;-74
2023/05/14 03:10:26;;;;;;;;;;;;;;;;;;;;;
2023/05/14 03:11:07;;;;;;;22.17;13.70;;;;;;;;;;493239;28;1621;-74
2023/05/14 03:11:23;;;;;;;30.33;15.68;;;;;;;;;;491437;28;1349;-74
2023/05/14 03:11:39;;;;;;;28.77;15.95;;;;;;;;;;498551;28;1295;-73
2023/05/14 03:13:10;;;;;;;47.60;16.23;;;;;;;;;;498352;29;1306;-73
2023/05/14 03:13:25;;;;;;;53.63;17.42;;;;;;;;;;485162;28;959;-74
2023/05/14 03:13:41;;;;;;;44.43;16.97;;;;;;;;;;491324;28;1301;-74
2023/05/14 03:14:11;;;;;;;31.45;16.20;;;;;;;;;;492708;28;1594;-74
2023/05/14 03:14:32;;;;;;;20.95;15.57;;;;;;;;;;488169;28;1288;-74
2023/05/14 03:15:14;;;;;;;20.25;14.73;;;;;;;;;;496095;28;955;-73
2023/05/14 03:15:30;;;;;;;34.65;15.20;;;;;;;;;;491969;29;1380;-73
2023/05/14 03:15:55;;;;;;;18.65;14.18;;;;;;;;;;488302;28;1216;-74
2023/05/14 03:17:16;;;;;;;21.73;14.65;;;;;;;;;;492283;28;1057;-74
2023/05/14 03:17:31;;;;;;;39.92;16.23;;;;;;;;;;490314;28;1434;-74
2023/05/14 03:17:56;;;;;;;36.30;16.43;;;;;;;;;;491354;28;1083;-74
2023/05/14 03:18:17;;;;;;;18.83;14.95;;;;;;;;;;488473;28;1269;-74
2023/05/14 03:19:13;;;;;;;20.77;15.15;;;;;;;;;;475825;29;1425;-73
2023/05/14 03:19:50;;;;;;;22.60;15.85;;;;;;;;;;478505;29;1171;-74
2023/05/14 03:20:46;;;;;;;18.40;14.63;;;;;;;;;;482402;28;1605;-74
2023/05/14 03:21:11;;;;;;;;;;;;;;;;;;;;;
2023/05/14 03:21:36;;;;;;;17.40;14.48;;;;;;;;;;498060;28;1172;-73
2023/05/14 03:22:12;;;;;;;26.13;15.05;;;;;;;;;;489030;28;1208;-74
2023/05/14 03:22:33;;;;;;;40.85;15.52;;;;;;;;;;485111;28;1124;-74
2023/05/14 03:23:14;;;;;;;39.13;15.48;;;;;;;;;;502749;28;1373;-73
2023/05/14 03:23:36;;;;;;;48.95;15.98;;;;;;;;;;497031;28;1248;-73
2023/05/14 03:24:02;;;;;;;;;;;;;;;;;;;;;
2023/05/14 03:24:41;;;;;;;42.08;15.77;;;;;;;;;;483518;28;1488;-74
2023/05/14 03:25:35;;;;;;;;;;;;;;;;;;;;;
2023/05/14 03:26:03;;;;;;;52.63;16.23;;;;;;;;;;498561;28;1248;-73
2023/05/14 03:26:24;;;;;;;35.10;15.50;;;;;;;;;;490594;28;1216;-73
2023/05/14 03:26:40;;;;;;;48.13;15.98;;;;;;;;;;491751;28;1112;-73
2023/05/14 03:26:55;;;;;;;56.17;16.30;;;;;;;;;;497017;28;1132;-73
2023/05/14 03:27:11;;;;;;;57.85;16.50;;;;;;;;;;490191;28;1025;-74
2023/05/14 03:27:32;;;;;;;56.27;16.63;;;;;;;;;;495077;28;1119;-74
2023/05/14 03:27:50;;;;;;;64.85;17.63;;;;;;;;;;505303;28;1204;-74
2023/05/14 03:28:06;;;;;;;70.88;16.85;;;;;;;;;;494279;28;995;-73
2023/05/14 03:30:29;;;;;;;;;;;;;;;;;;;;;
2023/05/14 03:30:45;;;;;;;87.18;18.15;;;;;;;;;;500090;28;1118;-73
2023/05/14 03:32:13;;;;;;;62.72;17.05;;;;;;;;;;483645;29;1393;-75
2023/05/14 03:32:37;;;;;;;62.35;17.75;;;;;;;;;;486820;29;1045;-74
2023/05/14 03:33:54;;;;;;;99.97;17.88;;;;;;;;;;481086;28;1515;-75
2023/05/14 03:34:16;;;;;;;68.40;17.80;;;;;;;;;;488198;28;1508;-75
2023/05/14 03:34:57;;;;;;;83.47;18.42;;;;;;;;;;498300;28;1378;-75
2023/05/14 03:35:22;;;;;;;78.55;17.98;;;;;;;;;;485808;28;1679;-74
2023/05/14 03:35:37;;;;;;;119.95;19.48;;;;;;;;;;496786;28;1011;-74
2023/05/14 03:36:37;;;;;;;;;;;;;;;;;;;;;
2023/05/14 03:37:23;;;;;;;;;;;;;;;;;;;;;
2023/05/14 03:37:51;;;;;;;121.88;21.58;;;;;;;;;;484182;28;1509;-75
2023/05/14 03:38:51;;;;;;;65.40;19.75;;;;;;;;;;492087;28;977;-74
2023/05/14 03:39:28;;;;;;;53.58;19.48;;;;;;;;;;482781;28;1263;-74
2023/05/14 03:40:45;;;;;;;86.90;20.25;;;;;;;;;;482788;28;1204;-75
2023/05/14 03:41:45;;;;;;;;;;;;;;;;;;;;;
2023/05/14 03:43:01;;;;;;;;;;;;;;;;;;;;;
2023/05/14 03:43:58;;;;;;;85.80;20.50;;;;;;;;;;505717;28;1027;-75
2023/05/14 03:45:56;;;;;;;;;;;;;;;;;;;;;
2023/05/14 03:47:29;;;;;;;61.40;19.67;;;;;;;;;;487239;28;1162;-75
2023/05/14 03:48:26;;;;;;;;;;;;;;;;;;;;;
2023/05/14 03:48:36;;;;;;;32.35;18.73;;;;;;;;;;497252;28;1290;-74
2023/05/14 03:49:00;;;;;;;38.03;18.80;;;;;;;;;;497050;28;1258;-75